createdAt,value
2018-11-21T00:00:20.215Z,103714.23
2018-11-21T00:02:49.869Z,103712.77
2018-11-21T00:05:18.666Z,103708.21
2018-11-21T00:07:47.532Z,103702.13
2018-11-21T00:10:16.177Z,103709.88
2018-11-21T00:12:50.562Z,103709.88
2018-11-21T00:15:19.169Z,103709.17
2018-11-21T00:17:48.183Z,103709.17
2018-11-21T00:20:17.089Z,103723.56
2018-11-21T00:22:45.685Z,103731.78
2018-11-21T00:25:14.600Z,103736.08
2018-11-21T00:27:43.359Z,103736.08
2018-11-21T00:30:13.764Z,103731.70
2018-11-21T00:32:42.702Z,103732.14
2018-11-21T00:35:11.795Z,103737.66
2018-11-21T00:37:40.379Z,103737.66
2018-11-21T00:40:11.005Z,103732.44
2018-11-21T00:42:46.467Z,103739.62
2018-11-21T00:45:09.722Z,103741.31
2018-11-21T00:47:38.562Z,103737.52
2018-11-21T00:50:07.750Z,103730.67
2018-11-21T00:52:36.624Z,103710.68
2018-11-21T00:55:06.046Z,103705.38
2018-11-21T00:57:34.883Z,103703.69
2018-11-21T01:00:03.786Z,103703.69
2018-11-21T01:02:32.369Z,103703.28
2018-11-21T01:05:01.213Z,103697.24
2018-11-21T01:07:29.932Z,103704.87
2018-11-21T01:09:58.795Z,103698.69
2018-11-21T01:12:27.992Z,103706.97
2018-11-21T01:14:56.883Z,103717.28
2018-11-21T01:17:27.739Z,103711.98
2018-11-21T01:19:56.509Z,103718.57
2018-11-21T01:22:25.625Z,103718.57
2018-11-21T01:24:54.555Z,103712.86
2018-11-21T01:27:23.423Z,103712.86
2018-11-21T01:29:52.211Z,103716.33
2018-11-21T01:32:21.090Z,103713.20
2018-11-21T01:34:49.790Z,103711.03
2018-11-21T01:37:18.380Z,103717.77
2018-11-21T01:39:47.339Z,103717.77
2018-11-21T01:42:16.171Z,103710.66
2018-11-21T01:44:44.933Z,103706.73
2018-11-21T01:47:13.989Z,103707.61
2018-11-21T01:49:42.720Z,103698.52
2018-11-21T01:52:11.349Z,103698.59
2018-11-21T01:54:40.233Z,103691.81
2018-11-21T01:57:09.074Z,103693.14
2018-11-21T01:59:37.649Z,103693.14
2018-11-21T02:02:06.584Z,103686.30
2018-11-21T02:04:35.337Z,103685.89
2018-11-21T02:07:03.890Z,103682.73
2018-11-21T02:09:32.676Z,103677.66
2018-11-21T02:12:01.527Z,103679.77
2018-11-21T02:14:30.309Z,103679.77
2018-11-21T02:16:59.040Z,103666.30
2018-11-21T02:19:27.866Z,103659.78
2018-11-21T02:21:56.716Z,103667.52
2018-11-21T02:24:25.590Z,103667.52
2018-11-21T02:26:54.432Z,103677.02
2018-11-21T02:29:23.802Z,103675.39
2018-11-21T02:31:52.364Z,103679.25
2018-11-21T02:34:21.158Z,103669.39
2018-11-21T02:36:50.095Z,103679.77
2018-11-21T02:39:18.912Z,103681.46
2018-11-21T02:41:47.813Z,103673.66
2018-11-21T02:44:16.529Z,103673.66
2018-11-21T02:46:45.097Z,103674.10
2018-11-21T02:49:13.776Z,103679.66
2018-11-21T02:51:42.682Z,103679.66
2018-11-21T02:54:11.486Z,103680.41
2018-11-21T02:57:16.669Z,103678.56
2018-11-21T02:59:45.866Z,103673.78
2018-11-21T03:02:15.146Z,103659.94
2018-11-21T03:04:43.783Z,103659.94
2018-11-21T03:07:12.711Z,103655.53
2018-11-21T03:09:41.464Z,103657.63
2018-11-21T03:12:10.326Z,103656.70
2018-11-21T03:14:39.241Z,103663.96
2018-11-21T03:17:08.133Z,103651.75
2018-11-21T03:19:36.852Z,103652.16
2018-11-21T03:22:05.573Z,103652.16
2018-11-21T03:24:34.294Z,103641.84
2018-11-21T03:27:02.976Z,103635.81
2018-11-21T03:29:31.910Z,103637.17
2018-11-21T03:32:00.668Z,103637.17
2018-11-21T03:34:29.587Z,103633.72
2018-11-21T03:36:58.205Z,103619.03
2018-11-21T03:39:27.239Z,103612.22
2018-11-21T03:41:56.192Z,103600.05
2018-11-21T03:44:24.858Z,103600.05
2018-11-21T03:46:53.614Z,103604.02
2018-11-21T03:49:22.714Z,103593.30
2018-11-21T03:51:51.272Z,103590.94
2018-11-21T03:54:19.785Z,103582.50
2018-11-21T03:56:48.453Z,103581.69
2018-11-21T03:59:17.313Z,103569.86
2018-11-21T04:01:46.004Z,103572.50
2018-11-21T04:04:14.609Z,103564.30
2018-11-21T04:06:43.229Z,103560.12
2018-11-21T04:09:13.254Z,103560.12
2018-11-21T04:11:42.116Z,103552.40
2018-11-21T04:14:10.808Z,103547.24
2018-11-21T04:16:39.474Z,103532.91
2018-11-21T04:19:08.208Z,103532.91
2018-11-21T04:21:36.922Z,103532.59
2018-11-21T04:24:05.976Z,103532.59
2018-11-21T04:26:34.853Z,103528.66
2018-11-21T04:29:03.468Z,103525.03
2018-11-21T04:31:32.139Z,103518.28
2018-11-21T04:34:00.817Z,103518.28
2018-11-21T04:36:29.453Z,103525.53
2018-11-21T04:38:57.976Z,103519.50
2018-11-21T04:41:26.699Z,103508.69
2018-11-21T04:43:55.525Z,103508.69
2018-11-21T04:46:24.273Z,103509.98
2018-11-21T04:48:53.287Z,103502.59
2018-11-21T04:51:21.954Z,103493.44
2018-11-21T04:53:50.579Z,103490.80
2018-11-21T04:56:19.217Z,103489.51
2018-11-21T04:58:47.954Z,103489.84
2018-11-21T05:01:16.588Z,103480.28
2018-11-21T05:03:45.179Z,103472.56
2018-11-21T05:06:13.972Z,103472.56
2018-11-21T05:08:42.502Z,103462.33
2018-11-21T05:11:11.126Z,103462.33
2018-11-21T05:13:39.943Z,103453.72
2018-11-21T05:16:08.624Z,103453.34
2018-11-21T05:18:37.293Z,103458.87
2018-11-21T05:21:06.139Z,103450.27
2018-11-21T05:23:34.870Z,103441.19
2018-11-21T05:26:03.469Z,103441.02
2018-11-21T05:28:32.192Z,103441.97
2018-11-21T05:31:00.798Z,103441.97
2018-11-21T05:33:29.370Z,103428.66
2018-11-21T05:35:58.047Z,103422.52
2018-11-21T05:38:26.655Z,103422.52
2018-11-21T05:40:55.396Z,103424.08
2018-11-21T05:43:24.204Z,103413.67
2018-11-21T05:45:53.144Z,103406.30
2018-11-21T05:48:21.862Z,103385.80
2018-11-21T05:50:50.918Z,103406.63
2018-11-21T05:53:19.631Z,103396.09
2018-11-21T05:55:48.549Z,103396.09
2018-11-21T05:58:17.434Z,103396.56
2018-11-21T06:00:49.233Z,103379.37
2018-11-21T06:03:14.936Z,103381.94
2018-11-21T06:05:44.072Z,103377.61
2018-11-21T06:08:12.812Z,103373.27
2018-11-21T06:10:41.554Z,103379.70
2018-11-21T06:13:10.383Z,103373.58
2018-11-21T06:15:39.283Z,103378.65
2018-11-21T06:18:08.066Z,103370.39
2018-11-21T06:20:36.820Z,103370.39
2018-11-21T06:23:05.748Z,103368.22
2018-11-21T06:25:34.807Z,103368.22
2018-11-21T06:28:03.701Z,103369.81
2018-11-21T06:30:32.636Z,103361.07
2018-11-21T06:33:01.416Z,103355.45
2018-11-21T06:35:33.366Z,103354.53
2018-11-21T06:38:02.262Z,103346.89
2018-11-21T06:40:31.220Z,103342.19
2018-11-21T06:43:00.700Z,103345.23
2018-11-21T06:45:30.107Z,103337.81
2018-11-21T06:47:58.766Z,103325.45
2018-11-21T06:50:27.692Z,103327.28
2018-11-21T06:52:57.619Z,103327.28
2018-11-21T06:55:26.596Z,103330.94
2018-11-21T06:57:55.281Z,103341.45
2018-11-21T07:00:24.255Z,103346.19
2018-11-21T07:02:53.031Z,103345.98
2018-11-21T07:05:21.679Z,103349.43
2018-11-21T07:07:50.436Z,103336.88
2018-11-21T07:10:19.220Z,103330.78
2018-11-21T07:12:48.073Z,103336.80
2018-11-21T07:15:16.903Z,103325.70
2018-11-21T07:17:45.518Z,103320.09
2018-11-21T07:20:14.572Z,103316.56
2018-11-21T07:22:43.639Z,103302.80
2018-11-21T07:25:15.186Z,103296.95
2018-11-21T07:27:44.458Z,103289.69
2018-11-21T07:30:14.707Z,103277.09
2018-11-21T07:32:43.539Z,103273.99
2018-11-21T07:35:17.828Z,103263.80
2018-11-21T07:37:42.061Z,103256.71
2018-11-21T07:40:12.560Z,103255.64
2018-11-21T07:42:41.253Z,103256.24
2018-11-21T07:45:11.518Z,103256.21
2018-11-21T07:47:40.668Z,103248.27
2018-11-21T07:50:14.970Z,103249.58
2018-11-21T07:52:43.990Z,103241.23
2018-11-21T07:55:13.383Z,103237.59
2018-11-21T07:57:43.804Z,103214.34
2018-11-21T08:00:58.368Z,103204.47
2018-11-21T08:03:29.070Z,103204.47
2018-11-21T08:06:08.938Z,103190.50
2018-11-21T08:08:56.626Z,103188.84
2018-11-21T08:11:44.514Z,103183.28
2018-11-21T08:14:26.761Z,103183.28
2018-11-21T08:17:12.849Z,103172.65
2018-11-21T08:20:18.954Z,103172.65
2018-11-21T08:23:12.621Z,103166.78
2018-11-21T08:26:15.772Z,103160.23
2018-11-21T08:28:44.645Z,103160.23
2018-11-21T08:31:13.532Z,103159.11
2018-11-21T08:33:42.162Z,103159.11
2018-11-21T08:36:11.054Z,103165.84
2018-11-21T08:38:39.814Z,103165.84
2018-11-21T08:41:08.740Z,103156.30
2018-11-21T08:43:37.512Z,103156.30
2018-11-21T08:46:07.343Z,103146.97
2018-11-21T08:48:36.124Z,103144.66
2018-11-21T08:51:05.398Z,103132.64
2018-11-21T08:53:34.208Z,103130.31
2018-11-21T08:56:02.914Z,103130.31
2018-11-21T08:58:31.684Z,103124.88
2018-11-21T09:01:00.543Z,103115.25
2018-11-21T09:03:29.393Z,103115.25
2018-11-21T09:05:57.979Z,103113.19
2018-11-21T09:08:27.136Z,103111.58
2018-11-21T09:10:55.983Z,103111.17
2018-11-21T09:13:25.002Z,103110.29
2018-11-21T09:15:53.772Z,103122.98
2018-11-21T09:18:22.477Z,103125.16
2018-11-21T09:20:51.194Z,103127.59
2018-11-21T09:23:19.750Z,103130.09
2018-11-21T09:25:48.677Z,103127.91
2018-11-21T09:28:17.648Z,103129.92
2018-11-21T09:30:46.449Z,103121.09
2018-11-21T09:33:15.083Z,103117.23
2018-11-21T09:35:43.808Z,103115.53
2018-11-21T09:38:12.737Z,103110.04
2018-11-21T09:40:41.427Z,103112.58
2018-11-21T09:43:10.126Z,103110.83
2018-11-21T09:45:39.005Z,103107.87
2018-11-21T09:48:07.601Z,103103.53
2018-11-21T09:50:36.377Z,103074.50
2018-11-21T09:53:05.347Z,103074.50
2018-11-21T09:55:34.092Z,103063.44
2018-11-21T09:58:02.934Z,103054.02
2018-11-21T10:01:08.366Z,103052.63
2018-11-21T10:03:38.527Z,103052.63
2018-11-21T10:06:22.293Z,103055.62
2018-11-21T10:08:52.777Z,103055.27
2018-11-21T10:11:21.759Z,103046.78
2018-11-21T10:13:50.465Z,103047.80
2018-11-21T10:16:19.135Z,103047.80
2018-11-21T10:18:49.629Z,103046.45
2018-11-21T10:21:26.184Z,103040.33
2018-11-21T10:23:54.897Z,103045.12
2018-11-21T10:26:23.736Z,103051.72
2018-11-21T10:28:53.039Z,103047.06
2018-11-21T10:31:21.995Z,103044.16
2018-11-21T10:33:51.017Z,103037.17
2018-11-21T10:37:03.043Z,103034.19
2018-11-21T10:39:33.124Z,103042.98
2018-11-21T10:42:03.156Z,103033.19
2018-11-21T10:44:33.403Z,103038.45
2018-11-21T10:47:03.414Z,103026.30
2018-11-21T10:49:33.452Z,103018.96
2018-11-21T10:52:03.881Z,103019.96
2018-11-21T10:54:33.967Z,103022.97
2018-11-21T10:57:03.994Z,103011.78
2018-11-21T10:59:34.050Z,103001.69
2018-11-21T11:02:17.766Z,102991.77
2018-11-21T11:04:53.115Z,102990.97
2018-11-21T11:07:44.286Z,102977.57
2018-11-21T11:10:36.515Z,102978.07
2018-11-21T11:13:22.735Z,102961.71
2018-11-21T11:16:21.874Z,102951.02
2018-11-21T11:19:13.690Z,102937.29
2018-11-21T11:22:01.189Z,102923.44
2018-11-21T11:24:58.859Z,102933.83
2018-11-21T11:27:54.031Z,102935.65
2018-11-21T11:30:42.908Z,102928.42
2018-11-21T11:33:43.630Z,102923.28
2018-11-21T11:36:25.905Z,102919.96
2018-11-21T11:39:11.998Z,102907.27
2018-11-21T11:41:59.427Z,102908.27
2018-11-21T11:44:51.290Z,102918.28
2018-11-21T11:47:38.399Z,102906.84
2018-11-21T11:50:29.770Z,102894.90
2018-11-21T11:53:23.566Z,102887.12
2018-11-21T11:56:11.103Z,102877.41
2018-11-21T11:58:59.694Z,102868.83
2018-11-21T12:01:51.764Z,102863.21
2018-11-21T12:04:38.962Z,102855.41
2018-11-21T12:07:36.586Z,102866.25
2018-11-21T12:10:30.591Z,102853.31
2018-11-21T12:13:31.643Z,102859.73
2018-11-21T12:16:18.996Z,102847.23
2018-11-21T12:19:22.900Z,102835.94
2018-11-21T12:22:08.094Z,102844.63
2018-11-21T12:24:57.008Z,102837.58
2018-11-21T12:27:45.944Z,102830.61
2018-11-21T12:30:37.922Z,102823.59
2018-11-21T12:33:32.212Z,102815.73
2018-11-21T12:36:19.855Z,102803.98
2018-11-21T12:39:26.918Z,102799.05
2018-11-21T12:42:27.621Z,102787.98
2018-11-21T12:45:15.128Z,102797.23
2018-11-21T12:48:02.738Z,102790.06
2018-11-21T12:50:57.480Z,102790.09
2018-11-21T12:53:43.188Z,102799.89
2018-11-21T12:56:29.058Z,102799.89
2018-11-21T12:59:11.314Z,102815.31
2018-11-21T13:01:50.544Z,102810.67
2018-11-21T13:04:54.237Z,102810.67
2018-11-21T13:07:46.091Z,102800.29
2018-11-21T13:10:38.110Z,102796.41
2018-11-21T13:13:44.963Z,102787.67
2018-11-21T13:16:32.386Z,102788.78
2018-11-21T13:19:19.328Z,102789.88
2018-11-21T13:22:14.049Z,102777.69
2018-11-21T13:25:06.011Z,102763.91
2018-11-21T13:27:54.853Z,102766.92
2018-11-21T13:30:52.643Z,102756.87
2018-11-21T13:33:41.613Z,102748.59
2018-11-21T13:36:30.779Z,102740.86
2018-11-21T13:39:31.479Z,102728.31
2018-11-21T13:42:18.584Z,102727.41
2018-11-21T13:45:07.918Z,102716.52
2018-11-21T13:47:50.775Z,102715.97
2018-11-21T13:50:45.801Z,102709.50
2018-11-21T13:53:33.380Z,102716.28
2018-11-21T13:56:03.775Z,102715.66
2018-11-21T13:58:34.080Z,102707.41
2018-11-21T14:01:04.380Z,102706.55
2018-11-21T14:03:34.671Z,102715.38
2018-11-21T14:06:04.994Z,102716.52
2018-11-21T14:08:35.135Z,102724.63
2018-11-21T14:11:05.394Z,102718.93
2018-11-21T14:13:35.646Z,102708.28
2018-11-21T14:16:05.944Z,102710.06
2018-11-21T14:18:36.228Z,102697.59
2018-11-21T14:21:06.645Z,102696.38
2018-11-21T14:23:37.046Z,102695.85
2018-11-21T14:26:07.442Z,102685.76
2018-11-21T14:28:38.240Z,102698.67
2018-11-21T14:31:08.791Z,102683.90
2018-11-21T14:33:39.089Z,102675.66
2018-11-21T14:36:09.408Z,102684.20
2018-11-21T14:38:40.126Z,102684.20
2018-11-21T14:41:10.254Z,102680.75
2018-11-21T14:43:40.279Z,102688.39
2018-11-21T14:46:11.042Z,102677.15
2018-11-21T14:48:41.299Z,102673.42
2018-11-21T14:51:11.422Z,102670.08
2018-11-21T14:53:41.587Z,102670.45
2018-11-21T14:56:12.097Z,102665.78
2018-11-21T14:58:42.239Z,102664.84
2018-11-21T15:01:12.558Z,102657.92
2018-11-21T15:03:42.818Z,102651.05
2018-11-21T15:06:13.103Z,102649.58
2018-11-21T15:08:43.129Z,102649.58
2018-11-21T15:11:13.472Z,102633.09
2018-11-21T15:13:43.599Z,102633.09
2018-11-21T15:16:14.929Z,102634.80
2018-11-21T15:18:45.336Z,102624.86
2018-11-21T15:21:16.739Z,102630.86
2018-11-21T15:23:45.939Z,102629.98
2018-11-21T15:26:16.213Z,102626.11
2018-11-21T15:28:46.329Z,102618.86
2018-11-21T15:31:16.283Z,102618.33
2018-11-21T15:33:46.520Z,102615.78
2018-11-21T15:36:16.794Z,102605.87
2018-11-21T15:38:46.948Z,102607.17
2018-11-21T15:41:17.867Z,102607.17
2018-11-21T15:43:47.919Z,102615.19
2018-11-21T15:46:18.243Z,102615.19
2018-11-21T15:48:48.473Z,102590.97
2018-11-21T15:51:18.854Z,102590.97
2018-11-21T15:53:49.597Z,102597.53
2018-11-21T15:56:20.027Z,102593.66
2018-11-21T15:58:50.723Z,102603.04
2018-11-21T16:01:21.088Z,102580.42
2018-11-21T16:03:51.673Z,102595.64
2018-11-21T16:06:21.824Z,102589.53
2018-11-21T16:08:51.926Z,102596.51
2018-11-21T16:11:22.089Z,102598.10
2018-11-21T16:13:52.474Z,102598.10
2018-11-21T16:16:22.877Z,102598.86
2018-11-21T16:18:53.466Z,102591.05
2018-11-21T16:21:23.813Z,102596.97
2018-11-21T16:23:54.169Z,102596.97
2018-11-21T16:26:24.324Z,102593.39
2018-11-21T16:28:54.785Z,102595.02
2018-11-21T16:31:25.068Z,102594.52
2018-11-21T16:33:55.258Z,102606.55
2018-11-21T16:36:27.181Z,102606.55
2018-11-21T16:38:56.045Z,102605.05
2018-11-21T16:41:26.498Z,102605.05
2018-11-21T16:43:56.862Z,102609.34
2018-11-21T16:46:27.267Z,102615.12
2018-11-21T16:48:57.759Z,102615.12
2018-11-21T16:51:28.184Z,102623.97
2018-11-21T16:53:58.281Z,102617.53
2018-11-21T16:56:28.649Z,102621.89
2018-11-21T16:58:58.645Z,102616.28
2018-11-21T17:01:29.166Z,102605.97
2018-11-21T17:03:59.669Z,102607.71
2018-11-21T17:06:29.881Z,102604.52
2018-11-21T17:09:00.006Z,102600.05
2018-11-21T17:11:30.045Z,102588.92
2018-11-21T17:14:00.185Z,102588.92
2018-11-21T17:16:30.197Z,102591.49
2018-11-21T17:19:00.441Z,102591.49
2018-11-21T17:21:30.946Z,102588.92
2018-11-21T17:24:01.072Z,102588.92
2018-11-21T17:26:31.730Z,102582.84
2018-11-21T17:29:02.567Z,102583.63
2018-11-21T17:31:32.136Z,102583.63
2018-11-21T17:34:02.164Z,102573.98
2018-11-21T17:36:32.581Z,102568.48
2018-11-21T17:39:02.695Z,102563.17
2018-11-21T17:41:33.127Z,102563.17
2018-11-21T17:44:03.366Z,102560.46
2018-11-21T17:46:33.625Z,102556.55
2018-11-21T17:49:07.186Z,102544.45
2018-11-21T17:51:37.483Z,102544.45
2018-11-21T17:54:08.125Z,102546.70
2018-11-21T17:56:38.291Z,102546.70
2018-11-21T17:59:08.617Z,102546.33
2018-11-21T18:01:38.696Z,102529.81
2018-11-21T18:04:09.182Z,102518.09
2018-11-21T18:06:40.015Z,102518.09
2018-11-21T18:09:13.210Z,102521.17
2018-11-21T18:11:43.496Z,102544.41
2018-11-21T18:14:13.649Z,102517.14
2018-11-21T18:16:44.048Z,102519.38
2018-11-21T18:19:14.333Z,102527.87
2018-11-21T18:21:44.794Z,102516.14
2018-11-21T18:24:15.153Z,102516.14
2018-11-21T18:26:45.289Z,102528.28
2018-11-21T18:29:15.420Z,102525.58
2018-11-21T18:31:45.978Z,102525.50
2018-11-21T18:34:16.112Z,102536.31
2018-11-21T18:36:46.245Z,102532.77
2018-11-21T18:39:16.670Z,102532.77
2018-11-21T18:41:46.963Z,102538.30
2018-11-21T18:44:16.989Z,102538.30
2018-11-21T18:46:47.572Z,102531.81
2018-11-21T18:49:23.859Z,102527.27
2018-11-21T18:51:54.140Z,102527.27
2018-11-21T18:54:24.359Z,102524.66
2018-11-21T18:57:18.437Z,102525.89
2018-11-21T19:00:07.072Z,102518.95
2018-11-21T19:02:37.201Z,102513.34
2018-11-21T19:05:07.909Z,102505.16
2018-11-21T19:07:38.310Z,102507.73
2018-11-21T19:10:12.458Z,102509.72
2018-11-21T19:12:43.675Z,102505.80
2018-11-21T19:15:15.903Z,102503.52
2018-11-21T19:17:46.196Z,102501.77
2018-11-21T19:20:18.364Z,102505.13
2018-11-21T19:22:52.180Z,102505.13
2018-11-21T19:25:22.593Z,102490.87
2018-11-21T19:27:52.800Z,102479.20
2018-11-21T19:30:23.077Z,102481.77
2018-11-21T19:32:53.702Z,102485.14
2018-11-21T19:35:24.069Z,102479.52
2018-11-21T19:37:54.325Z,102494.97
2018-11-21T19:40:24.573Z,102480.21
2018-11-21T19:42:55.316Z,102480.21
2018-11-21T19:45:25.523Z,102481.91
2018-11-21T19:47:55.674Z,102468.50
2018-11-21T19:50:26.368Z,102468.50
2018-11-21T19:52:56.573Z,102473.81
2018-11-21T19:55:28.341Z,102473.81
2018-11-21T19:57:59.107Z,102466.14
2018-11-21T20:00:30.881Z,102473.97
2018-11-21T20:03:01.287Z,102471.98
2018-11-21T20:05:31.682Z,102477.59
2018-11-21T20:08:02.313Z,102478.27
2018-11-21T20:10:32.642Z,102478.27
2018-11-21T20:13:03.030Z,102474.40
2018-11-21T20:15:33.725Z,102481.63
2018-11-21T20:18:05.271Z,102480.84
2018-11-21T20:20:36.042Z,102471.04
2018-11-21T20:23:06.868Z,102481.75
2018-11-21T20:25:39.195Z,102481.75
2018-11-21T20:28:09.795Z,102478.68
2018-11-21T20:30:41.469Z,102474.72
2018-11-21T20:33:12.910Z,102481.13
2018-11-21T20:35:43.415Z,102481.63
2018-11-21T20:38:13.907Z,102475.60
2018-11-21T20:40:44.174Z,102470.95
2018-11-21T20:43:14.709Z,102470.95
2018-11-21T20:45:45.013Z,102461.44
2018-11-21T20:48:15.057Z,102449.52
2018-11-21T20:50:45.330Z,102449.52
2018-11-21T20:53:15.773Z,102455.17
2018-11-21T20:55:46.042Z,102456.00
2018-11-21T20:58:16.336Z,102440.99
2018-11-21T21:00:46.872Z,102442.58
2018-11-21T21:03:17.133Z,102431.73
2018-11-21T21:05:47.306Z,102431.73
2018-11-21T21:08:17.683Z,102447.19
2018-11-21T21:10:49.216Z,102435.59
2018-11-21T21:13:19.544Z,102434.72
2018-11-21T21:15:50.042Z,102444.19
2018-11-21T21:18:20.427Z,102444.53
2018-11-21T21:20:50.994Z,102444.53
2018-11-21T21:23:21.327Z,102441.07
2018-11-21T21:25:53.064Z,102444.10
2018-11-21T21:28:23.553Z,102449.21
2018-11-21T21:30:54.383Z,102441.53
2018-11-21T21:33:24.676Z,102431.14
2018-11-21T21:35:55.013Z,102431.14
2018-11-21T21:38:25.126Z,102434.59
2018-11-21T21:40:58.504Z,102418.40
2018-11-21T21:43:28.858Z,102409.34
2018-11-21T21:45:58.850Z,102409.71
2018-11-21T21:48:29.081Z,102409.71
2018-11-21T21:51:00.143Z,102421.97
2018-11-21T21:53:30.197Z,102415.53
2018-11-21T21:56:00.392Z,102403.41
2018-11-21T21:58:30.647Z,102403.41
2018-11-21T22:01:00.665Z,102403.07
2018-11-21T22:03:30.824Z,102408.80
2018-11-21T22:06:00.979Z,102400.70
2018-11-21T22:08:31.236Z,102401.19
2018-11-21T22:11:01.347Z,102401.19
2018-11-21T22:13:31.759Z,102403.35
2018-11-21T22:16:01.826Z,102403.35
2018-11-21T22:18:31.992Z,102409.34
2018-11-21T22:21:02.006Z,102403.66
2018-11-21T22:23:32.254Z,102395.46
2018-11-21T22:26:02.486Z,102395.46
2018-11-21T22:28:32.705Z,102391.48
2018-11-21T22:31:02.918Z,102389.28
2018-11-21T22:33:33.280Z,102383.21
2018-11-21T22:36:03.635Z,102373.20
2018-11-21T22:38:33.806Z,102377.14
2018-11-21T22:41:04.097Z,102375.82
2018-11-21T22:43:34.328Z,102373.20
2018-11-21T22:46:04.539Z,102376.70
2018-11-21T22:48:34.744Z,102374.08
2018-11-21T22:51:04.845Z,102371.20
2018-11-21T22:53:34.954Z,102371.20
2018-11-21T22:56:05.088Z,102368.30
2018-11-21T22:58:35.249Z,102360.16
2018-11-21T23:01:05.445Z,102367.96
2018-11-21T23:03:35.872Z,102369.17
2018-11-21T23:06:06.338Z,102369.17
2018-11-21T23:08:36.479Z,102381.17
2018-11-21T23:11:06.594Z,102366.84
2018-11-21T23:13:36.977Z,102375.95
2018-11-21T23:16:07.332Z,102375.95
2018-11-21T23:18:37.483Z,102376.32
2018-11-21T23:21:08.082Z,102376.32
2018-11-21T23:23:38.100Z,102379.35
2018-11-21T23:26:08.368Z,102379.27
2018-11-21T23:28:38.596Z,102377.98
2018-11-21T23:31:08.683Z,102366.39
2018-11-21T23:33:38.603Z,102366.39
2018-11-21T23:36:08.762Z,102356.80
2018-11-21T23:38:39.123Z,102356.80
2018-11-21T23:41:09.178Z,102368.55
2018-11-21T23:43:39.645Z,102368.55
2018-11-21T23:46:10.107Z,102360.37
2018-11-21T23:48:40.066Z,102362.19
2018-11-21T23:51:10.365Z,102362.19
2018-11-21T23:53:40.551Z,102356.55
2018-11-21T23:56:10.597Z,102356.55
2018-11-21T23:58:40.754Z,102345.33
